Virtual Airlines Manager

 METAR AND TAF INFORMATION
METAR FOR LQSA
ADDS - METARS form results

(0427 UTC 23 October 2017)
Data provider http://aviationweather.gov/adds/metars/
 
METAR text: LQSA 230400Z 33004KT 290V020 8000 -RA FEW003 SCT010 BKN025 08/08 Q1007 TEMPO BKN010
Conditions at: LQSA (SARAJEVO/BUTMIR , CS) observed 0400 UTC 23 October 2017
Temperature: 8.0°C (46°F)
Dewpoint: 8.0°C (46°F) [RH = 100%]
Pressure (altimeter): 29.73 inches Hg (1007.0 mb)
Winds: from the NNW (330 degrees) at 5 MPH (4 knots; 2.1 m/s)
Visibility: 5 miles (8 km)
Ceiling: 2500 feet AGL
Clouds: few clouds at 300 feet AGL
scattered clouds at 1000 feet AGL
broken clouds at 2500 feet AGL
Weather: -RA  (light rain)

METAR text: LQSA 230330Z 35003KT 290V050 7000 -RA FEW010 SCT033 BKN040 08/08 Q1007
Conditions at: LQSA (SARAJEVO/BUTMIR , CS) observed 0330 UTC 23 October 2017
Temperature: 8.0°C (46°F)
Dewpoint: 8.0°C (46°F) [RH = 100%]
Pressure (altimeter): 29.73 inches Hg (1007.0 mb)
Winds: from the N (350 degrees) at 3 MPH (3 knots; 1.6 m/s)
Visibility: 4 miles (7 km)
Ceiling: 4000 feet AGL
Clouds: few clouds at 1000 feet AGL
scattered clouds at 3300 feet AGL
broken clouds at 4000 feet AGL
Weather: -RA  (light rain)

Forecast for: LQSA (SARAJEVO/BUTMIR , CS)
Text: TAF LQSA 222300Z 2300/2324 30006KT 3000 RA SCT005 BKN010 OVC020 TX10/2300Z TN04/2323Z
Forecast period: 0000 UTC 23 October 2017 to 0000 UTC 24 October 2017
Forecast type: FROM: standard forecast or significant change
Winds: from the WNW (300 degrees) at 7 MPH (6 knots; 3.1 m/s)
Visibility: 1.86 miles (2.99 km)
Ceiling: 1000 feet AGL
Clouds: scattered clouds at 500 feet AGL
broken clouds at 1000 feet AGL
overcast cloud deck at 2000 feet AGL
Weather: RA  (rain)
Text: PROB40
Forecast period: 0000 to 0300 UTC 23 October 2017
Forecast type: TEMPORARY: The following changes expected for less than half the time period
Winds: from the NNW (340 degrees) at 17 MPH (15 knots; 7.8 m/s)
gusting to 29 MPH (25 knots; 13.0 m/s)
Visibility: 0.62 miles (1.00 km)
Ceiling: 3300 feet AGL
Clouds: scattered clouds at 500 feet AGL
few clouds at 2500 feet AGL
broken clouds at 3300 feet AGL
Weather: TSRA  (rain associated with thunderstorm(s))

 AIRPORT MAP

 RUNWAY INFORMATION
Runway 12 Runway length 8666 ft Runway width 150 ft
Runway elevation 1643 ft Runway displaced threshold 333 ft Runway heading 117
Runway 30 Runway length 8666 ft Runway width 150 ft
Runway elevation 1690 ft Runway displaced threshold 1666 ft Runway heading 297

 AIRPORT FREQUENCIES
Type APP Name APP Frequency 136.45 MHZ
Type GCA Name GCA Frequency 119.4 MHZ
Type GND Name GND Frequency 121.9 MHZ
Type TWR Name TWR Frequency 118.25 MHZ

 AIRPORT NEAR NAVIGATION AIDS
Type NDB Name Sarajevo Frequency 436 KHZ
Type VOR-DME Name Sarajevo Frequency 116700 KHZ
Type NDB Name Kobiljaca Frequency 358 KHZ
Type VORTAC Name Sarajevo Frequency 108850 KHZ



Powered by Virtual Airlines Manager [v2.6.2]